sensor_id;sensor_type;location;lat;lon;timestamp;P1;durP1;ratioP1;P2;durP2;ratioP2
43311;SDS011;30041;48.300;16.352;2023-02-21T00:00:20;0.55;;;0.28;;
43311;SDS011;30041;48.300;16.352;2023-02-21T00:02:46;0.63;;;0.40;;
43311;SDS011;30041;48.300;16.352;2023-02-21T00:05:11;1.08;;;0.55;;
43311;SDS011;30041;48.300;16.352;2023-02-21T00:07:37;0.82;;;0.45;;
43311;SDS011;30041;48.300;16.352;2023-02-21T00:10:03;0.50;;;0.28;;
43311;SDS011;30041;48.300;16.352;2023-02-21T00:12:29;0.65;;;0.38;;
43311;SDS011;30041;48.300;16.352;2023-02-21T00:14:55;1.00;;;0.50;;
43311;SDS011;30041;48.300;16.352;2023-02-21T00:17:21;0.75;;;0.50;;
43311;SDS011;30041;48.300;16.352;2023-02-21T00:19:47;0.55;;;0.43;;
43311;SDS011;30041;48.300;16.352;2023-02-21T00:22:13;0.88;;;0.30;;
43311;SDS011;30041;48.300;16.352;2023-02-21T00:24:38;0.43;;;0.30;;
43311;SDS011;30041;48.300;16.352;2023-02-21T00:27:03;0.90;;;0.38;;
43311;SDS011;30041;48.300;16.352;2023-02-21T00:29:29;0.82;;;0.43;;
43311;SDS011;30041;48.300;16.352;2023-02-21T00:31:55;0.40;;;0.30;;
43311;SDS011;30041;48.300;16.352;2023-02-21T00:34:20;0.38;;;0.28;;
43311;SDS011;30041;48.300;16.352;2023-02-21T00:36:46;0.57;;;0.30;;
43311;SDS011;30041;48.300;16.352;2023-02-21T00:39:11;1.15;;;0.30;;
43311;SDS011;30041;48.300;16.352;2023-02-21T00:41:36;0.50;;;0.28;;
43311;SDS011;30041;48.300;16.352;2023-02-21T00:44:02;0.50;;;0.35;;
43311;SDS011;30041;48.300;16.352;2023-02-21T00:46:27;0.60;;;0.40;;
43311;SDS011;30041;48.300;16.352;2023-02-21T00:48:53;0.55;;;0.40;;
43311;SDS011;30041;48.300;16.352;2023-02-21T00:51:18;0.77;;;0.30;;
43311;SDS011;30041;48.300;16.352;2023-02-21T00:53:44;0.40;;;0.28;;
43311;SDS011;30041;48.300;16.352;2023-02-21T00:56:09;0.40;;;0.30;;
43311;SDS011;30041;48.300;16.352;2023-02-21T00:58:35;0.35;;;0.17;;
43311;SDS011;30041;48.300;16.352;2023-02-21T01:01:00;0.75;;;0.20;;
43311;SDS011;30041;48.300;16.352;2023-02-21T01:03:26;0.55;;;0.32;;
43311;SDS011;30041;48.300;16.352;2023-02-21T01:05:51;0.85;;;0.38;;
43311;SDS011;30041;48.300;16.352;2023-02-21T01:08:18;0.60;;;0.30;;
43311;SDS011;30041;48.300;16.352;2023-02-21T01:10:43;0.85;;;0.40;;
43311;SDS011;30041;48.300;16.352;2023-02-21T01:13:09;0.40;;;0.40;;
43311;SDS011;30041;48.300;16.352;2023-02-21T01:15:35;0.70;;;0.35;;
43311;SDS011;30041;48.300;16.352;2023-02-21T01:18:00;0.50;;;0.30;;
43311;SDS011;30041;48.300;16.352;2023-02-21T01:20:26;0.35;;;0.20;;
43311;SDS011;30041;48.300;16.352;2023-02-21T01:22:51;0.20;;;0.20;;
43311;SDS011;30041;48.300;16.352;2023-02-21T01:25:17;0.35;;;0.30;;
43311;SDS011;30041;48.300;16.352;2023-02-21T01:27:42;0.50;;;0.30;;
43311;SDS011;30041;48.300;16.352;2023-02-21T01:30:08;0.63;;;0.20;;
43311;SDS011;30041;48.300;16.352;2023-02-21T01:32:34;0.30;;;0.30;;
43311;SDS011;30041;48.300;16.352;2023-02-21T01:34:59;0.40;;;0.30;;
43311;SDS011;30041;48.300;16.352;2023-02-21T01:37:25;0.50;;;0.40;;
43311;SDS011;30041;48.300;16.352;2023-02-21T01:39:50;0.52;;;0.30;;
43311;SDS011;30041;48.300;16.352;2023-02-21T01:42:16;0.55;;;0.20;;
43311;SDS011;30041;48.300;16.352;2023-02-21T01:44:44;0.10;;;0.10;;
43311;SDS011;30041;48.300;16.352;2023-02-21T01:47:12;0.50;;;0.20;;
43311;SDS011;30041;48.300;16.352;2023-02-21T01:49:38;0.50;;;0.30;;
43311;SDS011;30041;48.300;16.352;2023-02-21T01:52:05;0.35;;;0.25;;
43311;SDS011;30041;48.300;16.352;2023-02-21T01:54:35;0.65;;;0.30;;
43311;SDS011;30041;48.300;16.352;2023-02-21T01:57:05;0.30;;;0.20;;
43311;SDS011;30041;48.300;16.352;2023-02-21T01:59:31;0.20;;;0.20;;
43311;SDS011;30041;48.300;16.352;2023-02-21T02:04:53;0.20;;;0.20;;
43311;SDS011;30041;48.300;16.352;2023-02-21T02:07:19;0.32;;;0.20;;
43311;SDS011;30041;48.300;16.352;2023-02-21T02:09:45;0.22;;;0.15;;
43311;SDS011;30041;48.300;16.352;2023-02-21T02:12:15;0.52;;;0.20;;
43311;SDS011;30041;48.300;16.352;2023-02-21T02:20:21;0.50;;;0.20;;
43311;SDS011;30041;48.300;16.352;2023-02-21T02:23:04;0.40;;;0.20;;
43311;SDS011;30041;48.300;16.352;2023-02-21T02:25:55;0.30;;;0.15;;
43311;SDS011;30041;48.300;16.352;2023-02-21T02:28:33;0.20;;;0.20;;
43311;SDS011;30041;48.300;16.352;2023-02-21T02:34:05;0.10;;;0.10;;
43311;SDS011;30041;48.300;16.352;2023-02-21T02:36:49;0.40;;;0.30;;
43311;SDS011;30041;48.300;16.352;2023-02-21T02:44:38;0.40;;;0.20;;
43311;SDS011;30041;48.300;16.352;2023-02-21T02:47:07;0.32;;;0.17;;
43311;SDS011;30041;48.300;16.352;2023-02-21T02:49:39;0.30;;;0.10;;
43311;SDS011;30041;48.300;16.352;2023-02-21T02:52:07;0.50;;;0.30;;
43311;SDS011;30041;48.300;16.352;2023-02-21T02:54:33;0.35;;;0.30;;
43311;SDS011;30041;48.300;16.352;2023-02-21T02:57:00;0.25;;;0.20;;
43311;SDS011;30041;48.300;16.352;2023-02-21T02:59:29;0.45;;;0.20;;
43311;SDS011;30041;48.300;16.352;2023-02-21T03:02:34;0.20;;;0.10;;
43311;SDS011;30041;48.300;16.352;2023-02-21T03:15:32;0.17;;;0.10;;
43311;SDS011;30041;48.300;16.352;2023-02-21T03:18:28;0.17;;;0.17;;
43311;SDS011;30041;48.300;16.352;2023-02-21T03:21:08;0.30;;;0.20;;
43311;SDS011;30041;48.300;16.352;2023-02-21T03:23:37;0.40;;;0.20;;
43311;SDS011;30041;48.300;16.352;2023-02-21T03:26:05;0.47;;;0.13;;
43311;SDS011;30041;48.300;16.352;2023-02-21T03:28:34;0.25;;;0.20;;
43311;SDS011;30041;48.300;16.352;2023-02-21T03:31:01;0.22;;;0.10;;
43311;SDS011;30041;48.300;16.352;2023-02-21T03:33:29;0.20;;;0.20;;
43311;SDS011;30041;48.300;16.352;2023-02-21T03:35:58;0.28;;;0.10;;
43311;SDS011;30041;48.300;16.352;2023-02-21T03:38:28;0.20;;;0.17;;
43311;SDS011;30041;48.300;16.352;2023-02-21T03:40:54;0.35;;;0.30;;
43311;SDS011;30041;48.300;16.352;2023-02-21T03:43:20;0.10;;;0.10;;
43311;SDS011;30041;48.300;16.352;2023-02-21T03:45:46;0.15;;;0.10;;
43311;SDS011;30041;48.300;16.352;2023-02-21T03:48:12;0.20;;;0.15;;
43311;SDS011;30041;48.300;16.352;2023-02-21T03:50:37;0.30;;;0.22;;
43311;SDS011;30041;48.300;16.352;2023-02-21T03:53:03;0.22;;;0.22;;
43311;SDS011;30041;48.300;16.352;2023-02-21T03:55:28;0.45;;;0.20;;
43311;SDS011;30041;48.300;16.352;2023-02-21T03:57:54;0.10;;;0.10;;
43311;SDS011;30041;48.300;16.352;2023-02-21T04:00:19;0.00;;;0.00;;
43311;SDS011;30041;48.300;16.352;2023-02-21T04:02:45;0.10;;;0.10;;
43311;SDS011;30041;48.300;16.352;2023-02-21T04:05:11;0.10;;;0.10;;
43311;SDS011;30041;48.300;16.352;2023-02-21T04:07:36;0.22;;;0.10;;
43311;SDS011;30041;48.300;16.352;2023-02-21T04:10:02;0.10;;;0.10;;
43311;SDS011;30041;48.300;16.352;2023-02-21T04:12:27;0.10;;;0.10;;
43311;SDS011;30041;48.300;16.352;2023-02-21T04:14:53;0.20;;;0.13;;
43311;SDS011;30041;48.300;16.352;2023-02-21T04:17:18;0.90;;;0.20;;
43311;SDS011;30041;48.300;16.352;2023-02-21T04:19:44;0.20;;;0.20;;
43311;SDS011;30041;48.300;16.352;2023-02-21T04:22:09;0.65;;;0.20;;
43311;SDS011;30041;48.300;16.352;2023-02-21T04:24:35;0.35;;;0.17;;
43311;SDS011;30041;48.300;16.352;2023-02-21T04:27:00;0.10;;;0.10;;
43311;SDS011;30041;48.300;16.352;2023-02-21T04:29:26;0.03;;;0.03;;
43311;SDS011;30041;48.300;16.352;2023-02-21T04:31:51;0.25;;;0.10;;
43311;SDS011;30041;48.300;16.352;2023-02-21T04:34:17;0.50;;;0.25;;
43311;SDS011;30041;48.300;16.352;2023-02-21T04:36:42;0.30;;;0.17;;
43311;SDS011;30041;48.300;16.352;2023-02-21T04:39:08;0.10;;;0.00;;
43311;SDS011;30041;48.300;16.352;2023-02-21T04:41:33;0.10;;;0.10;;
43311;SDS011;30041;48.300;16.352;2023-02-21T04:43:59;0.13;;;0.10;;
43311;SDS011;30041;48.300;16.352;2023-02-21T04:46:25;0.00;;;0.00;;
43311;SDS011;30041;48.300;16.352;2023-02-21T04:48:50;0.10;;;0.10;;
43311;SDS011;30041;48.300;16.352;2023-02-21T04:51:17;0.13;;;0.10;;
43311;SDS011;30041;48.300;16.352;2023-02-21T04:53:45;0.20;;;0.10;;
43311;SDS011;30041;48.300;16.352;2023-02-21T04:56:12;0.13;;;0.10;;
43311;SDS011;30041;48.300;16.352;2023-02-21T04:58:37;0.10;;;0.10;;
43311;SDS011;30041;48.300;16.352;2023-02-21T05:01:03;0.25;;;0.10;;
43311;SDS011;30041;48.300;16.352;2023-02-21T05:03:29;0.25;;;0.10;;
43311;SDS011;30041;48.300;16.352;2023-02-21T05:05:55;0.20;;;0.20;;
43311;SDS011;30041;48.300;16.352;2023-02-21T05:08:20;0.20;;;0.10;;
43311;SDS011;30041;48.300;16.352;2023-02-21T05:10:46;0.10;;;0.10;;
43311;SDS011;30041;48.300;16.352;2023-02-21T05:13:12;0.10;;;0.10;;
43311;SDS011;30041;48.300;16.352;2023-02-21T05:15:38;0.10;;;0.10;;
43311;SDS011;30041;48.300;16.352;2023-02-21T05:18:04;0.00;;;0.00;;
43311;SDS011;30041;48.300;16.352;2023-02-21T05:20:29;0.17;;;0.10;;
43311;SDS011;30041;48.300;16.352;2023-02-21T05:22:55;0.13;;;0.00;;
43311;SDS011;30041;48.300;16.352;2023-02-21T05:25:21;0.13;;;0.13;;
43311;SDS011;30041;48.300;16.352;2023-02-21T05:27:51;0.10;;;0.00;;
43311;SDS011;30041;48.300;16.352;2023-02-21T05:30:17;0.00;;;0.00;;
43311;SDS011;30041;48.300;16.352;2023-02-21T05:32:44;0.03;;;0.03;;
43311;SDS011;30041;48.300;16.352;2023-02-21T05:35:10;0.10;;;0.10;;
43311;SDS011;30041;48.300;16.352;2023-02-21T05:37:37;0.00;;;0.00;;
43311;SDS011;30041;48.300;16.352;2023-02-21T05:40:02;0.20;;;0.03;;
43311;SDS011;30041;48.300;16.352;2023-02-21T05:42:28;0.03;;;0.00;;
43311;SDS011;30041;48.300;16.352;2023-02-21T05:44:54;0.05;;;0.05;;
43311;SDS011;30041;48.300;16.352;2023-02-21T05:47:20;0.00;;;0.00;;
43311;SDS011;30041;48.300;16.352;2023-02-21T05:49:45;0.00;;;0.00;;
43311;SDS011;30041;48.300;16.352;2023-02-21T05:52:11;0.00;;;0.00;;
43311;SDS011;30041;48.300;16.352;2023-02-21T05:54:39;0.00;;;0.00;;
43311;SDS011;30041;48.300;16.352;2023-02-21T05:57:04;0.00;;;0.00;;
43311;SDS011;30041;48.300;16.352;2023-02-21T05:59:30;0.00;;;0.00;;
43311;SDS011;30041;48.300;16.352;2023-02-21T06:01:55;0.00;;;0.00;;
43311;SDS011;30041;48.300;16.352;2023-02-21T06:04:21;0.10;;;0.00;;
43311;SDS011;30041;48.300;16.352;2023-02-21T06:06:48;0.00;;;0.00;;
43311;SDS011;30041;48.300;16.352;2023-02-21T06:09:15;0.00;;;0.00;;
43311;SDS011;30041;48.300;16.352;2023-02-21T06:11:41;0.00;;;0.00;;
43311;SDS011;30041;48.300;16.352;2023-02-21T06:14:08;0.00;;;0.00;;
43311;SDS011;30041;48.300;16.352;2023-02-21T06:16:38;0.00;;;0.00;;
43311;SDS011;30041;48.300;16.352;2023-02-21T06:19:04;0.00;;;0.00;;
43311;SDS011;30041;48.300;16.352;2023-02-21T06:21:32;0.00;;;0.00;;
43311;SDS011;30041;48.300;16.352;2023-02-21T06:23:57;0.10;;;0.10;;
43311;SDS011;30041;48.300;16.352;2023-02-21T06:26:23;0.00;;;0.00;;
43311;SDS011;30041;48.300;16.352;2023-02-21T06:28:49;0.00;;;0.00;;
43311;SDS011;30041;48.300;16.352;2023-02-21T06:31:15;0.00;;;0.00;;
43311;SDS011;30041;48.300;16.352;2023-02-21T06:33:42;0.00;;;0.00;;
43311;SDS011;30041;48.300;16.352;2023-02-21T06:36:09;0.05;;;0.00;;
43311;SDS011;30041;48.300;16.352;2023-02-21T06:38:37;0.00;;;0.00;;
43311;SDS011;30041;48.300;16.352;2023-02-21T06:41:06;11.77;;;0.95;;
43311;SDS011;30041;48.300;16.352;2023-02-21T06:43:33;9.20;;;1.30;;
43311;SDS011;30041;48.300;16.352;2023-02-21T06:45:59;6.10;;;1.20;;
43311;SDS011;30041;48.300;16.352;2023-02-21T06:48:24;6.32;;;1.30;;
43311;SDS011;30041;48.300;16.352;2023-02-21T06:50:50;7.65;;;2.00;;
43311;SDS011;30041;48.300;16.352;2023-02-21T06:53:15;4.20;;;1.15;;
43311;SDS011;30041;48.300;16.352;2023-02-21T06:55:40;4.07;;;1.38;;
43311;SDS011;30041;48.300;16.352;2023-02-21T06:58:06;7.10;;;1.80;;
43311;SDS011;30041;48.300;16.352;2023-02-21T07:00:32;6.57;;;1.95;;
43311;SDS011;30041;48.300;16.352;2023-02-21T07:02:57;4.22;;;1.60;;
43311;SDS011;30041;48.300;16.352;2023-02-21T07:05:23;3.70;;;1.70;;
43311;SDS011;30041;48.300;16.352;2023-02-21T07:07:48;5.70;;;1.77;;
43311;SDS011;30041;48.300;16.352;2023-02-21T07:10:14;5.68;;;1.40;;
43311;SDS011;30041;48.300;16.352;2023-02-21T07:12:39;6.55;;;1.33;;
43311;SDS011;30041;48.300;16.352;2023-02-21T07:15:05;6.07;;;1.58;;
43311;SDS011;30041;48.300;16.352;2023-02-21T07:17:31;3.72;;;1.30;;
43311;SDS011;30041;48.300;16.352;2023-02-21T07:19:57;2.63;;;1.35;;
43311;SDS011;30041;48.300;16.352;2023-02-21T07:22:22;5.95;;;1.25;;
43311;SDS011;30041;48.300;16.352;2023-02-21T07:24:48;4.30;;;1.27;;
43311;SDS011;30041;48.300;16.352;2023-02-21T07:27:13;4.07;;;1.10;;
43311;SDS011;30041;48.300;16.352;2023-02-21T07:29:39;2.63;;;1.13;;
43311;SDS011;30041;48.300;16.352;2023-02-21T07:32:05;2.72;;;1.20;;
43311;SDS011;30041;48.300;16.352;2023-02-21T07:34:30;4.22;;;1.40;;
43311;SDS011;30041;48.300;16.352;2023-02-21T07:36:55;4.82;;;1.20;;
43311;SDS011;30041;48.300;16.352;2023-02-21T07:39:21;6.50;;;1.38;;
43311;SDS011;30041;48.300;16.352;2023-02-21T07:41:46;5.50;;;1.30;;
43311;SDS011;30041;48.300;16.352;2023-02-21T07:44:12;6.53;;;1.23;;
43311;SDS011;30041;48.300;16.352;2023-02-21T07:46:38;4.68;;;1.30;;
43311;SDS011;30041;48.300;16.352;2023-02-21T07:49:03;2.97;;;1.15;;
43311;SDS011;30041;48.300;16.352;2023-02-21T07:51:29;5.45;;;1.08;;
43311;SDS011;30041;48.300;16.352;2023-02-21T07:53:55;2.63;;;1.20;;
43311;SDS011;30041;48.300;16.352;2023-02-21T07:56:21;7.60;;;1.30;;
43311;SDS011;30041;48.300;16.352;2023-02-21T07:58:47;8.77;;;1.60;;
43311;SDS011;30041;48.300;16.352;2023-02-21T08:01:13;7.93;;;1.50;;
43311;SDS011;30041;48.300;16.352;2023-02-21T08:03:38;4.85;;;1.30;;
43311;SDS011;30041;48.300;16.352;2023-02-21T08:06:04;3.75;;;1.10;;
43311;SDS011;30041;48.300;16.352;2023-02-21T08:08:29;4.18;;;1.30;;
43311;SDS011;30041;48.300;16.352;2023-02-21T08:10:55;7.53;;;1.50;;
43311;SDS011;30041;48.300;16.352;2023-02-21T08:13:20;8.50;;;1.40;;
43311;SDS011;30041;48.300;16.352;2023-02-21T08:15:46;4.75;;;1.10;;
43311;SDS011;30041;48.300;16.352;2023-02-21T08:18:17;5.35;;;1.10;;
43311;SDS011;30041;48.300;16.352;2023-02-21T08:20:46;2.90;;;0.98;;
43311;SDS011;30041;48.300;16.352;2023-02-21T08:23:12;3.53;;;1.05;;
43311;SDS011;30041;48.300;16.352;2023-02-21T08:25:38;5.15;;;1.10;;
43311;SDS011;30041;48.300;16.352;2023-02-21T08:28:03;3.90;;;0.75;;
43311;SDS011;30041;48.300;16.352;2023-02-21T08:30:29;3.53;;;0.70;;
43311;SDS011;30041;48.300;16.352;2023-02-21T08:32:55;2.88;;;0.77;;
43311;SDS011;30041;48.300;16.352;2023-02-21T08:35:20;7.22;;;1.48;;
43311;SDS011;30041;48.300;16.352;2023-02-21T08:37:47;5.30;;;1.10;;
43311;SDS011;30041;48.300;16.352;2023-02-21T08:40:14;3.85;;;1.20;;
43311;SDS011;30041;48.300;16.352;2023-02-21T08:42:42;2.70;;;1.05;;
43311;SDS011;30041;48.300;16.352;2023-02-21T08:45:17;7.47;;;1.15;;
43311;SDS011;30041;48.300;16.352;2023-02-21T08:47:44;6.82;;;1.10;;
43311;SDS011;30041;48.300;16.352;2023-02-21T08:50:09;5.90;;;1.00;;
43311;SDS011;30041;48.300;16.352;2023-02-21T08:52:35;7.13;;;1.45;;
43311;SDS011;30041;48.300;16.352;2023-02-21T08:55:01;6.90;;;1.40;;
43311;SDS011;30041;48.300;16.352;2023-02-21T08:57:26;5.75;;;1.52;;
43311;SDS011;30041;48.300;16.352;2023-02-21T08:59:52;10.13;;;1.42;;
43311;SDS011;30041;48.300;16.352;2023-02-21T09:02:18;11.38;;;1.40;;
43311;SDS011;30041;48.300;16.352;2023-02-21T09:04:48;5.25;;;1.20;;
43311;SDS011;30041;48.300;16.352;2023-02-21T09:07:15;5.68;;;1.33;;
43311;SDS011;30041;48.300;16.352;2023-02-21T09:09:41;5.65;;;1.17;;
43311;SDS011;30041;48.300;16.352;2023-02-21T09:12:07;5.40;;;1.08;;
43311;SDS011;30041;48.300;16.352;2023-02-21T09:14:36;6.20;;;1.10;;
43311;SDS011;30041;48.300;16.352;2023-02-21T09:17:03;3.92;;;0.90;;
43311;SDS011;30041;48.300;16.352;2023-02-21T09:19:30;5.00;;;0.90;;
43311;SDS011;30041;48.300;16.352;2023-02-21T09:21:55;6.75;;;0.93;;
43311;SDS011;30041;48.300;16.352;2023-02-21T09:24:22;4.35;;;0.93;;
43311;SDS011;30041;48.300;16.352;2023-02-21T09:26:48;6.13;;;1.00;;
43311;SDS011;30041;48.300;16.352;2023-02-21T09:29:13;5.45;;;0.77;;
43311;SDS011;30041;48.300;16.352;2023-02-21T09:31:39;8.63;;;0.90;;
43311;SDS011;30041;48.300;16.352;2023-02-21T09:34:05;3.03;;;0.73;;
43311;SDS011;30041;48.300;16.352;2023-02-21T09:36:34;5.13;;;0.88;;
43311;SDS011;30041;48.300;16.352;2023-02-21T09:39:00;3.58;;;0.60;;
43311;SDS011;30041;48.300;16.352;2023-02-21T09:41:26;3.30;;;0.70;;
43311;SDS011;30041;48.300;16.352;2023-02-21T09:43:52;3.22;;;0.65;;
43311;SDS011;30041;48.300;16.352;2023-02-21T09:46:27;3.65;;;0.60;;
43311;SDS011;30041;48.300;16.352;2023-02-21T09:49:10;3.75;;;0.60;;
43311;SDS011;30041;48.300;16.352;2023-02-21T09:51:51;2.38;;;0.75;;
43311;SDS011;30041;48.300;16.352;2023-02-21T09:54:34;2.67;;;0.50;;
43311;SDS011;30041;48.300;16.352;2023-02-21T09:57:05;2.30;;;0.60;;
43311;SDS011;30041;48.300;16.352;2023-02-21T09:59:35;2.65;;;0.60;;
43311;SDS011;30041;48.300;16.352;2023-02-21T10:07:39;2.58;;;0.68;;
43311;SDS011;30041;48.300;16.352;2023-02-21T10:10:16;3.60;;;0.43;;
43311;SDS011;30041;48.300;16.352;2023-02-21T10:12:58;1.70;;;0.50;;
43311;SDS011;30041;48.300;16.352;2023-02-21T10:18:23;3.50;;;0.70;;
43311;SDS011;30041;48.300;16.352;2023-02-21T10:21:16;6.15;;;3.00;;
43311;SDS011;30041;48.300;16.352;2023-02-21T10:23:49;7.32;;;2.50;;
43311;SDS011;30041;48.300;16.352;2023-02-21T10:26:18;5.40;;;2.83;;
43311;SDS011;30041;48.300;16.352;2023-02-21T10:28:48;9.30;;;2.80;;
43311;SDS011;30041;48.300;16.352;2023-02-21T10:31:20;7.95;;;2.70;;
43311;SDS011;30041;48.300;16.352;2023-02-21T10:33:53;5.40;;;2.20;;
43311;SDS011;30041;48.300;16.352;2023-02-21T10:36:19;6.40;;;2.63;;
43311;SDS011;30041;48.300;16.352;2023-02-21T10:38:52;8.35;;;2.45;;
43311;SDS011;30041;48.300;16.352;2023-02-21T10:41:22;6.28;;;2.60;;
43311;SDS011;30041;48.300;16.352;2023-02-21T10:43:52;6.05;;;2.42;;
43311;SDS011;30041;48.300;16.352;2023-02-21T10:46:24;7.75;;;2.42;;
43311;SDS011;30041;48.300;16.352;2023-02-21T10:48:58;6.18;;;2.50;;
43311;SDS011;30041;48.300;16.352;2023-02-21T10:51:41;6.50;;;2.50;;
43311;SDS011;30041;48.300;16.352;2023-02-21T10:54:22;5.85;;;2.45;;
43311;SDS011;30041;48.300;16.352;2023-02-21T10:56:49;7.45;;;2.35;;
43311;SDS011;30041;48.300;16.352;2023-02-21T10:59:21;4.53;;;2.28;;
43311;SDS011;30041;48.300;16.352;2023-02-21T11:01:52;5.10;;;1.98;;
43311;SDS011;30041;48.300;16.352;2023-02-21T11:06:45;6.00;;;2.20;;
43311;SDS011;30041;48.300;16.352;2023-02-21T11:12:02;4.40;;;2.30;;
43311;SDS011;30041;48.300;16.352;2023-02-21T11:14:30;4.80;;;1.90;;
43311;SDS011;30041;48.300;16.352;2023-02-21T11:17:04;5.32;;;2.22;;
43311;SDS011;30041;48.300;16.352;2023-02-21T11:20:15;4.38;;;1.88;;
43311;SDS011;30041;48.300;16.352;2023-02-21T11:22:42;5.70;;;1.95;;
43311;SDS011;30041;48.300;16.352;2023-02-21T11:25:28;5.40;;;1.90;;
43311;SDS011;30041;48.300;16.352;2023-02-21T11:28:03;6.95;;;2.40;;
43311;SDS011;30041;48.300;16.352;2023-02-21T11:30:45;5.28;;;2.08;;
43311;SDS011;30041;48.300;16.352;2023-02-21T11:38:35;4.55;;;1.77;;
43311;SDS011;30041;48.300;16.352;2023-02-21T11:41:39;11.17;;;2.33;;
43311;SDS011;30041;48.300;16.352;2023-02-21T11:47:16;8.77;;;2.20;;
43311;SDS011;30041;48.300;16.352;2023-02-21T11:55:21;6.70;;;2.08;;
43311;SDS011;30041;48.300;16.352;2023-02-21T11:58:05;3.38;;;1.80;;
43311;SDS011;30041;48.300;16.352;2023-02-21T12:01:02;5.78;;;1.75;;
43311;SDS011;30041;48.300;16.352;2023-02-21T12:09:08;3.97;;;1.75;;
43311;SDS011;30041;48.300;16.352;2023-02-21T12:14:34;7.55;;;2.00;;
43311;SDS011;30041;48.300;16.352;2023-02-21T12:17:16;3.45;;;1.63;;
43311;SDS011;30041;48.300;16.352;2023-02-21T12:20:07;4.10;;;1.70;;
43311;SDS011;30041;48.300;16.352;2023-02-21T12:25:35;3.90;;;1.70;;
43311;SDS011;30041;48.300;16.352;2023-02-21T12:32:02;4.33;;;1.70;;
43311;SDS011;30041;48.300;16.352;2023-02-21T12:37:00;4.60;;;1.63;;
43311;SDS011;30041;48.300;16.352;2023-02-21T12:45:56;2.97;;;1.50;;
43311;SDS011;30041;48.300;16.352;2023-02-21T12:48:44;2.85;;;1.40;;
43311;SDS011;30041;48.300;16.352;2023-02-21T12:51:40;4.07;;;1.48;;
43311;SDS011;30041;48.300;16.352;2023-02-21T12:54:15;3.72;;;1.45;;
43311;SDS011;30041;48.300;16.352;2023-02-21T12:56:46;3.72;;;1.30;;
43311;SDS011;30041;48.300;16.352;2023-02-21T12:59:21;3.53;;;1.40;;
43311;SDS011;30041;48.300;16.352;2023-02-21T13:01:55;2.60;;;1.38;;
43311;SDS011;30041;48.300;16.352;2023-02-21T13:04:34;4.38;;;1.20;;
43311;SDS011;30041;48.300;16.352;2023-02-21T13:07:13;3.10;;;1.63;;
43311;SDS011;30041;48.300;16.352;2023-02-21T13:13:06;4.35;;;1.52;;
43311;SDS011;30041;48.300;16.352;2023-02-21T13:15:33;6.68;;;1.40;;
43311;SDS011;30041;48.300;16.352;2023-02-21T13:18:04;4.53;;;1.40;;
43311;SDS011;30041;48.300;16.352;2023-02-21T13:20:33;3.85;;;1.50;;
43311;SDS011;30041;48.300;16.352;2023-02-21T13:28:51;2.92;;;1.35;;
43311;SDS011;30041;48.300;16.352;2023-02-21T13:31:23;3.03;;;1.45;;
43311;SDS011;30041;48.300;16.352;2023-02-21T13:33:58;4.35;;;1.52;;
43311;SDS011;30041;48.300;16.352;2023-02-21T13:36:27;6.07;;;1.67;;
43311;SDS011;30041;48.300;16.352;2023-02-21T13:39:10;4.05;;;1.50;;
43311;SDS011;30041;48.300;16.352;2023-02-21T13:41:52;4.43;;;1.20;;
43311;SDS011;30041;48.300;16.352;2023-02-21T13:44:27;5.38;;;1.20;;
43311;SDS011;30041;48.300;16.352;2023-02-21T13:47:08;5.28;;;1.40;;
43311;SDS011;30041;48.300;16.352;2023-02-21T13:50:07;3.28;;;1.23;;
43311;SDS011;30041;48.300;16.352;2023-02-21T13:53:00;3.85;;;1.45;;
43311;SDS011;30041;48.300;16.352;2023-02-21T13:55:38;5.50;;;1.40;;
43311;SDS011;30041;48.300;16.352;2023-02-21T14:02:56;2.40;;;1.30;;
43311;SDS011;30041;48.300;16.352;2023-02-21T14:05:24;2.30;;;0.90;;
43311;SDS011;30041;48.300;16.352;2023-02-21T14:08:01;6.38;;;1.30;;
43311;SDS011;30041;48.300;16.352;2023-02-21T14:13:16;4.32;;;1.05;;
43311;SDS011;30041;48.300;16.352;2023-02-21T14:15:45;10.57;;;1.20;;
43311;SDS011;30041;48.300;16.352;2023-02-21T14:18:23;4.93;;;0.88;;
43311;SDS011;30041;48.300;16.352;2023-02-21T14:20:53;1.40;;;0.70;;
43311;SDS011;30041;48.300;16.352;2023-02-21T14:23:21;1.67;;;0.70;;
43311;SDS011;30041;48.300;16.352;2023-02-21T14:25:58;2.72;;;1.00;;
43311;SDS011;30041;48.300;16.352;2023-02-21T14:39:57;2.97;;;0.68;;
43311;SDS011;30041;48.300;16.352;2023-02-21T15:04:31;4.18;;;1.10;;
43311;SDS011;30041;48.300;16.352;2023-02-21T15:09:40;4.32;;;1.20;;
43311;SDS011;30041;48.300;16.352;2023-02-21T15:12:12;3.35;;;0.98;;
43311;SDS011;30041;48.300;16.352;2023-02-21T15:14:40;5.60;;;1.25;;
43311;SDS011;30041;48.300;16.352;2023-02-21T15:17:18;2.65;;;1.00;;
43311;SDS011;30041;48.300;16.352;2023-02-21T15:19:45;2.95;;;1.00;;
43311;SDS011;30041;48.300;16.352;2023-02-21T15:22:15;6.50;;;1.02;;
43311;SDS011;30041;48.300;16.352;2023-02-21T15:27:32;3.10;;;1.00;;
43311;SDS011;30041;48.300;16.352;2023-02-21T15:30:25;2.15;;;0.95;;
43311;SDS011;30041;48.300;16.352;2023-02-21T15:33:04;5.85;;;1.38;;
43311;SDS011;30041;48.300;16.352;2023-02-21T15:35:37;2.95;;;1.10;;
43311;SDS011;30041;48.300;16.352;2023-02-21T15:38:06;10.73;;;1.45;;
43311;SDS011;30041;48.300;16.352;2023-02-21T15:40:39;4.82;;;1.20;;
43311;SDS011;30041;48.300;16.352;2023-02-21T15:43:05;6.10;;;1.02;;
43311;SDS011;30041;48.300;16.352;2023-02-21T15:45:34;4.40;;;1.10;;
43311;SDS011;30041;48.300;16.352;2023-02-21T15:48:10;3.33;;;1.00;;
43311;SDS011;30041;48.300;16.352;2023-02-21T15:50:42;3.97;;;0.98;;
43311;SDS011;30041;48.300;16.352;2023-02-21T15:53:11;3.33;;;0.80;;
43311;SDS011;30041;48.300;16.352;2023-02-21T15:55:38;2.60;;;0.93;;
43311;SDS011;30041;48.300;16.352;2023-02-21T16:00:31;2.65;;;0.95;;
43311;SDS011;30041;48.300;16.352;2023-02-21T16:11:57;6.43;;;1.13;;
43311;SDS011;30041;48.300;16.352;2023-02-21T16:19:32;4.22;;;1.10;;
43311;SDS011;30041;48.300;16.352;2023-02-21T16:27:36;3.70;;;1.27;;
43311;SDS011;30041;48.300;16.352;2023-02-21T16:30:09;4.78;;;1.23;;
43311;SDS011;30041;48.300;16.352;2023-02-21T16:32:37;5.57;;;1.30;;
43311;SDS011;30041;48.300;16.352;2023-02-21T16:35:03;3.47;;;0.88;;
43311;SDS011;30041;48.300;16.352;2023-02-21T16:37:28;2.72;;;0.95;;
43311;SDS011;30041;48.300;16.352;2023-02-21T16:39:54;2.28;;;0.82;;
43311;SDS011;30041;48.300;16.352;2023-02-21T16:42:19;2.85;;;0.75;;
43311;SDS011;30041;48.300;16.352;2023-02-21T16:44:45;3.35;;;0.95;;
43311;SDS011;30041;48.300;16.352;2023-02-21T16:47:14;3.03;;;0.75;;
43311;SDS011;30041;48.300;16.352;2023-02-21T16:49:41;4.45;;;1.13;;
43311;SDS011;30041;48.300;16.352;2023-02-21T16:52:12;1.15;;;0.60;;
43311;SDS011;30041;48.300;16.352;2023-02-21T16:54:39;3.65;;;0.90;;
43311;SDS011;30041;48.300;16.352;2023-02-21T16:57:05;8.20;;;1.05;;
43311;SDS011;30041;48.300;16.352;2023-02-21T16:59:31;4.53;;;0.90;;
43311;SDS011;30041;48.300;16.352;2023-02-21T17:01:57;3.60;;;0.88;;
43311;SDS011;30041;48.300;16.352;2023-02-21T17:04:24;4.15;;;0.73;;
43311;SDS011;30041;48.300;16.352;2023-02-21T17:06:51;3.75;;;0.82;;
43311;SDS011;30041;48.300;16.352;2023-02-21T17:09:20;6.85;;;1.02;;
43311;SDS011;30041;48.300;16.352;2023-02-21T17:11:47;3.42;;;0.70;;
43311;SDS011;30041;48.300;16.352;2023-02-21T17:14:13;7.07;;;1.15;;
43311;SDS011;30041;48.300;16.352;2023-02-21T17:16:38;4.47;;;1.00;;
43311;SDS011;30041;48.300;16.352;2023-02-21T17:19:04;3.63;;;0.93;;
43311;SDS011;30041;48.300;16.352;2023-02-21T17:21:30;5.10;;;1.10;;